Time;durP1;ratioP1;P1;durP2;ratioP2;P2;SDS_P1;SDS_P2;PMS_P1;PMS_P2;Temp;Humidity;BMP_temperature;BMP_pressure;BME280_temperature;BME280_humidity;BME280_pressure;Samples;Min_cycle;Max_cycle;Signal;HPM_P1;HPM_P2
2022/03/17 00:02:25;;;;;;;1999.90;999.90;;;;;;;2.54;50.53;102277.59;4942034;28;98379;-75
2022/03/17 00:04:53;;;;;;;1999.90;999.90;;;;;;;2.51;51.06;102272.09;4946025;28;97011;-75
2022/03/17 00:07:21;;;;;;;1999.90;999.90;;;;;;;2.50;51.35;102274.59;4942444;28;97217;-75
2022/03/17 00:09:48;;;;;;;1999.90;999.90;;;;;;;2.47;50.74;102266.50;4946793;28;97552;-75
2022/03/17 00:12:17;;;;;;;1999.90;999.90;;;;;;;2.46;51.33;102269.88;4939730;28;97160;-75
2022/03/17 00:14:45;;;;;;;1999.90;999.90;;;;;;;2.44;51.26;102268.88;4944800;28;99996;-75
2022/03/17 00:17:13;;;;;;;1999.90;999.90;;;;;;;2.44;51.52;102269.78;4945262;28;98087;-75
2022/03/17 00:19:41;;;;;;;1999.90;999.90;;;;;;;2.42;50.81;102266.13;4923618;28;100742;-75
2022/03/17 00:22:08;;;;;;;1999.90;999.90;;;;;;;2.39;50.72;102273.78;4938927;28;99786;-75
2022/03/17 00:24:37;;;;;;;1999.90;999.90;;;;;;;2.38;51.31;102257.91;4938164;28;98675;-76
2022/03/17 00:27:08;;;;;;;1999.90;999.90;;;;;;;2.38;51.50;102255.28;4938876;28;98751;-75
2022/03/17 00:29:38;;;;;;;1999.90;999.90;;;;;;;2.38;50.91;102250.03;4936049;28;101091;-75
2022/03/17 00:32:07;;;;;;;1999.90;999.90;;;;;;;2.39;51.82;102251.84;4937649;28;97755;-74
2022/03/17 00:35:35;;;;;;;1999.90;999.90;;;;;;;2.39;51.85;102249.22;4946089;28;96798;-75
2022/03/17 00:37:24;;;;;;;1999.90;999.90;;;;;;;2.37;51.60;102251.72;4937589;28;97626;-76
2022/03/17 00:39:52;;;;;;;1999.90;999.90;;;;;;;2.35;51.54;102250.69;4938250;28;98133;-75
2022/03/17 00:42:20;;;;;;;1999.90;999.90;;;;;;;2.37;51.95;102245.53;4937064;28;97210;-75
2022/03/17 00:44:50;;;;;;;1999.90;999.90;;;;;;;2.35;51.75;102248.06;4940145;28;99025;-75
2022/03/17 00:47:17;;;;;;;1999.90;999.90;;;;;;;2.35;51.74;102237.56;4942467;28;97620;-75
2022/03/17 00:49:45;;;;;;;1999.90;999.90;;;;;;;2.35;51.49;102234.91;4939734;28;97980;-75
2022/03/17 00:52:14;;;;;;;1999.90;999.90;;;;;;;2.35;51.74;102239.25;4936556;28;98206;-75
2022/03/17 00:54:42;;;;;;;1999.90;999.90;;;;;;;2.34;51.47;102245.31;4936944;28;97670;-75
2022/03/17 00:57:12;;;;;;;1999.90;999.90;;;;;;;2.31;52.20;102234.59;4940162;28;99146;-75
2022/03/17 00:59:41;;;;;;;1999.90;999.90;;;;;;;2.28;51.23;102239.56;4937518;28;99465;-75
2022/03/17 01:02:10;;;;;;;1999.90;999.90;;;;;;;2.25;51.45;102244.59;4937661;28;100430;-74
2022/03/17 01:04:39;;;;;;;1999.90;999.90;;;;;;;2.25;51.86;102244.59;4943639;28;97738;-74
2022/03/17 01:07:07;;;;;;;1999.90;999.90;;;;;;;2.25;51.82;102235.03;4942359;28;99008;-74
2022/03/17 01:09:35;;;;;;;1999.90;999.90;;;;;;;2.23;51.84;102231.38;4927210;28;100444;-75
2022/03/17 01:12:03;;;;;;;1999.90;999.90;;;;;;;2.24;51.85;102237.53;4943669;28;96904;-75
2022/03/17 01:14:31;;;;;;;1999.90;999.90;;;;;;;2.20;52.04;102231.09;4943410;28;96971;-74
2022/03/17 01:16:59;;;;;;;1999.90;999.90;;;;;;;2.18;51.90;102240.59;4942682;28;100552;-75
2022/03/17 01:19:28;;;;;;;1999.90;999.90;;;;;;;2.18;51.74;102237.97;4942462;28;99786;-75
2022/03/17 01:21:56;;;;;;;1999.90;999.90;;;;;;;2.17;52.50;102230.88;4926648;28;97571;-75
2022/03/17 01:24:23;;;;;;;1999.90;999.90;;;;;;;2.15;52.40;102228.13;4942730;28;97666;-75
2022/03/17 01:26:51;;;;;;;1999.90;999.90;;;;;;;2.14;51.95;102228.03;4942687;28;99697;-74
2022/03/17 01:29:22;;;;;;;1999.90;999.90;;;;;;;2.13;51.96;102229.72;4942156;28;98886;-75
2022/03/17 01:31:50;;;;;;;1999.90;999.90;;;;;;;2.12;51.52;102234.88;4941044;28;97183;-74
2022/03/17 01:34:18;;;;;;;1999.90;999.90;;;;;;;2.14;52.12;102223.66;4956818;28;97128;-75
2022/03/17 01:36:47;;;;;;;1999.90;999.90;;;;;;;2.15;51.75;102221.97;4945047;28;97691;-75
2022/03/17 01:39:15;;;;;;;1999.90;999.90;;;;;;;2.15;51.96;102217.63;4941474;28;99457;-75
2022/03/17 01:41:42;;;;;;;1999.90;999.90;;;;;;;2.16;52.40;102218.56;4945117;28;97555;-75
2022/03/17 01:44:10;;;;;;;1999.90;999.90;;;;;;;2.16;52.30;102216.81;4943561;28;97634;-75
2022/03/17 01:49:20;;;;;;;1999.90;999.90;;;;;;;2.16;52.55;102234.31;4938816;28;99321;-76
2022/03/17 01:51:49;;;;;;;1999.90;999.90;;;;;;;2.16;51.60;102229.94;4943621;28;97753;-76
2022/03/17 01:54:19;;;;;;;1999.90;999.90;;;;;;;2.18;52.43;102225.75;4923396;28;97343;-75
2022/03/17 01:57:05;;;;;;;1999.90;999.90;;;;;;;2.18;51.79;102223.09;4930810;28;99354;-75
2022/03/17 01:59:34;;;;;;;1999.90;999.90;;;;;;;2.18;52.01;102212.59;4949188;28;99619;-75
2022/03/17 02:02:03;;;;;;;1999.90;999.90;;;;;;;2.17;52.59;102215.13;4961862;28;96936;-75
2022/03/17 02:04:31;;;;;;;1999.90;999.90;;;;;;;2.15;52.35;102215.00;4939723;28;97773;-75
2022/03/17 02:07:01;;;;;;;1999.90;999.90;;;;;;;2.15;52.15;102217.63;4942514;28;97639;-75
2022/03/17 02:09:28;;;;;;;1999.90;999.90;;;;;;;2.15;52.49;102212.38;4941900;28;99171;-75
2022/03/17 02:14:49;;;;;;;1999.90;999.90;;;;;;;2.10;52.41;102210.19;4941496;28;97078;-75
2022/03/17 02:17:18;;;;;;;1999.90;999.90;;;;;;;2.09;52.41;102201.41;4938129;28;100575;-75
2022/03/17 02:19:45;;;;;;;1999.90;999.90;;;;;;;2.07;52.67;102202.94;4923908;28;100379;-75
2022/03/17 02:22:16;;;;;;;1999.90;999.90;;;;;;;2.05;51.96;102199.28;4941136;28;96864;-75
2022/03/17 02:27:34;;;;;;;1999.90;999.90;;;;;;;2.06;52.15;102209.00;4944788;28;99537;-75
2022/03/17 02:30:03;;;;;;;1999.90;999.90;;;;;;;2.06;51.80;102203.75;4943085;28;100098;-74
2022/03/17 02:32:31;;;;;;;1999.90;999.90;;;;;;;2.08;52.51;102204.78;4944265;28;97270;-75
2022/03/17 02:35:06;;;;;;;1999.90;999.90;;;;;;;2.04;52.15;102202.72;4940454;28;97301;-74
2022/03/17 02:37:34;;;;;;;1999.90;999.90;;;;;;;2.06;52.40;102218.59;4945977;28;98216;-75
2022/03/17 02:40:05;;;;;;;1999.90;999.90;;;;;;;2.04;52.08;102201.78;4943887;28;97596;-74
2022/03/17 02:42:33;;;;;;;1999.90;999.90;;;;;;;2.04;52.38;102210.59;4945135;28;97117;-74
2022/03/17 02:45:01;;;;;;;1999.90;999.90;;;;;;;2.03;52.42;102205.22;4943995;28;97205;-75
2022/03/17 02:47:29;;;;;;;1999.90;999.90;;;;;;;2.03;52.81;102199.97;4944460;28;97139;-74
2022/03/17 02:49:57;;;;;;;1999.90;999.90;;;;;;;2.02;52.71;102192.88;4947539;28;98847;-75
2022/03/17 02:52:26;;;;;;;1999.90;999.90;;;;;;;2.00;52.54;102200.66;4940392;28;97945;-75
2022/03/17 02:54:54;;;;;;;1999.90;999.90;;;;;;;1.99;52.96;102209.34;4939775;28;97037;-75
2022/03/17 02:57:23;;;;;;;1999.90;999.90;;;;;;;2.01;52.10;102207.75;4941859;28;99851;-74
2022/03/17 02:59:51;;;;;;;1999.90;999.90;;;;;;;2.02;52.96;102199.06;4943042;28;100780;-74
2022/03/17 03:02:20;;;;;;;1999.90;999.90;;;;;;;2.03;53.07;102195.66;4945306;28;98635;-75
2022/03/17 03:04:48;;;;;;;1999.90;999.90;;;;;;;2.01;52.72;102202.50;4959110;28;97294;-75
2022/03/17 03:07:16;;;;;;;1999.90;999.90;;;;;;;1.99;52.79;102206.72;4940311;28;99257;-74
2022/03/17 03:09:44;;;;;;;1999.90;999.90;;;;;;;1.99;53.21;102201.47;4943710;28;100591;-75
2022/03/17 03:12:11;;;;;;;1999.90;999.90;;;;;;;1.96;52.99;102201.19;4942043;28;96947;-76
2022/03/17 03:14:40;;;;;;;1999.90;999.90;;;;;;;1.96;52.61;102187.19;4943418;28;98759;-75
2022/03/17 03:17:08;;;;;;;1999.90;999.90;;;;;;;1.92;53.09;102199.16;4944015;28;97853;-75
2022/03/17 03:19:36;;;;;;;1999.90;999.90;;;;;;;1.93;52.44;102200.97;4944020;28;97702;-75
2022/03/17 03:22:04;;;;;;;1999.90;999.90;;;;;;;1.91;52.54;102192.06;4941417;28;97415;-74
2022/03/17 03:24:33;;;;;;;1999.90;999.90;;;;;;;1.93;53.29;102198.34;4942871;28;96972;-74
2022/03/17 03:27:01;;;;;;;1999.90;999.90;;;;;;;1.92;53.23;102201.78;4943032;28;98178;-75
2022/03/17 03:29:28;;;;;;;1999.90;999.90;;;;;;;1.92;53.49;102199.16;4942894;28;97960;-75
2022/03/17 03:32:00;;;;;;;1999.90;999.90;;;;;;;1.92;52.80;102193.91;4939988;28;97965;-75
2022/03/17 03:34:28;;;;;;;1999.90;999.90;;;;;;;1.91;52.72;102186.81;4940176;28;96797;-74
2022/03/17 03:39:41;;;;;;;1999.90;999.90;;;;;;;2.45;52.67;102174.44;4942425;28;97981;-75
2022/03/17 03:42:10;;;;;;;1999.90;999.90;;;;;;;2.11;53.36;102186.69;4940792;28;97209;-75
2022/03/17 03:44:38;;;;;;;1999.90;999.90;;;;;;;2.03;53.77;102193.03;4943493;28;96768;-75
2022/03/17 03:47:08;;;;;;;1999.90;999.90;;;;;;;1.98;53.10;102189.09;4936601;28;99867;-74
2022/03/17 03:49:38;;;;;;;1999.90;999.90;;;;;;;1.97;53.14;102189.91;4935985;28;98909;-75
2022/03/17 03:52:07;;;;;;;1999.90;999.90;;;;;;;1.95;53.57;102185.34;4935957;28;98901;-76
2022/03/17 03:54:36;;;;;;;1999.90;999.90;;;;;;;1.94;53.57;102181.81;4938783;28;97308;-74
2022/03/17 03:57:04;;;;;;;1999.90;999.90;;;;;;;1.93;53.60;102181.66;4937230;28;99559;-75
2022/03/17 03:59:33;;;;;;;1999.90;999.90;;;;;;;1.93;53.93;102186.91;4938609;28;98590;-74
2022/03/17 04:02:02;;;;;;;1999.90;999.90;;;;;;;1.91;53.75;102186.81;4957474;28;97592;-74
2022/03/17 04:04:34;;;;;;;1999.90;999.90;;;;;;;1.87;53.58;102192.59;4945569;28;97099;-74
2022/03/17 04:07:04;;;;;;;1999.90;999.90;;;;;;;1.87;53.77;102200.47;4944482;28;100048;-74
2022/03/17 04:09:34;;;;;;;1999.90;999.90;;;;;;;1.86;53.40;102203.00;4927257;28;100646;-75
2022/03/17 04:12:02;;;;;;;1999.90;999.90;;;;;;;1.85;53.12;102199.44;4945081;28;97647;-73
2022/03/17 04:14:30;;;;;;;1999.90;999.90;;;;;;;1.85;53.76;102188.94;4944311;28;97375;-75
2022/03/17 04:16:58;;;;;;;1999.90;999.90;;;;;;;1.85;53.26;102188.06;4946631;28;97679;-76
2022/03/17 04:19:27;;;;;;;1999.90;999.90;;;;;;;1.85;53.73;102194.19;4944053;28;100747;-74
2022/03/17 04:21:57;;;;;;;1999.90;999.90;;;;;;;1.84;53.26;102187.13;4940956;28;98128;-75
2022/03/17 04:24:24;;;;;;;1999.90;999.90;;;;;;;1.85;53.91;102183.69;4942314;28;97656;-75
2022/03/17 04:26:53;;;;;;;1999.90;999.90;;;;;;;1.86;52.87;102197.75;4940816;28;100545;-75
2022/03/17 04:29:21;;;;;;;1999.90;999.90;;;;;;;1.87;53.44;102199.59;4943310;28;99119;-74
2022/03/17 04:31:49;;;;;;;1999.90;999.90;;;;;;;1.86;53.20;102203.91;4945836;28;96781;-74
2022/03/17 04:34:18;;;;;;;1999.90;999.90;;;;;;;1.85;53.25;102196.81;4926005;28;99653;-75
2022/03/17 04:36:46;;;;;;;1999.90;999.90;;;;;;;1.85;53.48;102201.19;4944862;28;98048;-74
2022/03/17 04:39:14;;;;;;;1999.90;999.90;;;;;;;1.83;53.48;102203.69;4941271;28;97767;-74
2022/03/17 04:41:42;;;;;;;1999.90;999.90;;;;;;;1.83;53.79;102194.88;4942475;28;97639;-74
2022/03/17 04:44:12;;;;;;;1999.90;999.90;;;;;;;1.82;53.71;102193.03;4943353;28;98149;-75
2022/03/17 04:46:41;;;;;;;1999.90;999.90;;;;;;;1.84;53.96;102186.19;4944014;28;100175;-74
2022/03/17 04:49:10;;;;;;;1999.90;999.90;;;;;;;1.82;53.69;102196.59;4942212;28;99230;-75
2022/03/17 04:51:37;;;;;;;1999.90;999.90;;;;;;;1.82;53.62;102203.53;4927822;28;97691;-74
2022/03/17 04:54:06;;;;;;;1999.90;999.90;;;;;;;1.83;53.18;102200.13;4944292;28;99541;-74
2022/03/17 04:56:35;;;;;;;1999.90;999.90;;;;;;;1.82;53.18;102199.22;4946299;28;97719;-76
2022/03/17 04:59:03;;;;;;;1999.90;999.90;;;;;;;1.80;53.18;102206.03;4946675;28;97631;-76
2022/03/17 05:01:30;;;;;;;1999.90;999.90;;;;;;;1.81;53.64;102201.72;4944795;28;97725;-75
2022/03/17 05:03:58;;;;;;;1999.90;999.90;;;;;;;1.82;53.58;102201.84;4928131;28;97151;-76
2022/03/17 05:06:26;;;;;;;1999.90;999.90;;;;;;;1.82;53.52;102214.03;4942714;28;99591;-75
2022/03/17 05:08:54;;;;;;;1999.90;999.90;;;;;;;1.82;53.68;102208.78;4943083;28;96654;-75
2022/03/17 05:11:21;;;;;;;1999.90;999.90;;;;;;;1.81;53.43;102207.91;4942069;28;97551;-75
2022/03/17 05:13:51;;;;;;;1999.90;999.90;;;;;;;1.79;53.68;102209.47;4945924;28;97308;-76
2022/03/17 05:16:19;;;;;;;1999.90;999.90;;;;;;;1.79;53.09;102206.84;4939764;28;98714;-75
2022/03/17 05:18:47;;;;;;;1999.90;999.90;;;;;;;1.76;53.18;102209.22;4943399;28;97542;-76
2022/03/17 05:21:19;;;;;;;1999.90;999.90;;;;;;;1.76;53.46;102206.59;4943709;28;97085;-75
2022/03/17 05:23:46;;;;;;;1999.90;999.90;;;;;;;1.74;53.92;102210.84;4942162;28;97518;-75
2022/03/17 05:26:14;;;;;;;1999.90;999.90;;;;;;;1.73;53.24;102210.69;4939941;28;98297;-76
2022/03/17 05:28:42;;;;;;;1999.90;999.90;;;;;;;1.74;53.17;102215.16;4943288;28;97540;-74
2022/03/17 05:31:12;;;;;;;1999.90;999.90;;;;;;;1.75;53.40;102217.91;4943561;28;97897;-75
2022/03/17 05:33:40;;;;;;;1999.90;999.90;;;;;;;1.75;53.70;102207.41;4944070;28;97620;-76
2022/03/17 05:36:08;;;;;;;1999.90;999.90;;;;;;;1.79;53.52;102212.09;4943836;28;97843;-74
2022/03/17 05:38:51;;;;;;;1999.90;999.90;;;;;;;1.78;53.77;102204.13;4944290;28;98724;-75
2022/03/17 05:41:34;;;;;;;1999.90;999.90;;;;;;;1.79;53.19;102206.84;4941966;28;96749;-74
2022/03/17 05:44:16;;;;;;;1999.90;999.90;;;;;;;1.77;53.18;102215.38;4943765;28;98743;-76
2022/03/17 05:47:00;;;;;;;1999.90;999.90;;;;;;;1.77;54.03;102211.06;4943406;28;98561;-76
2022/03/17 05:49:28;;;;;;;1999.90;999.90;;;;;;;1.77;53.42;102211.06;4944542;28;98508;-76
2022/03/17 05:51:55;;;;;;;1999.90;999.90;;;;;;;1.78;53.06;102215.50;4942952;28;98269;-76
2022/03/17 05:54:23;;;;;;;1999.90;999.90;;;;;;;1.80;53.36;102208.66;4941519;28;97790;-76
2022/03/17 05:56:51;;;;;;;1999.90;999.90;;;;;;;1.81;53.28;102218.41;4944806;28;97999;-74
2022/03/17 05:59:19;;;;;;;1999.90;999.90;;;;;;;1.80;53.86;102206.03;4960253;28;98386;-75
2022/03/17 06:01:46;;;;;;;1999.90;999.90;;;;;;;1.82;53.94;102212.34;4942836;28;97220;-74
2022/03/17 06:04:36;;;;;;;1999.90;999.90;;;;;;;1.83;53.24;102203.69;4941147;28;97907;-75
2022/03/17 06:07:04;;;;;;;1999.90;999.90;;;;;;;1.84;53.84;102208.13;4940081;28;98049;-73
2022/03/17 06:09:32;;;;;;;1999.90;999.90;;;;;;;1.80;54.01;102210.38;4941100;28;98475;-74
2022/03/17 06:12:00;;;;;;;1999.90;999.90;;;;;;;1.80;53.40;102208.66;4941330;28;97952;-76
2022/03/17 06:14:27;;;;;;;1999.90;999.90;;;;;;;1.79;53.66;102211.19;4942000;28;96865;-77
2022/03/17 06:16:55;;;;;;;1999.90;999.90;;;;;;;1.80;53.49;102219.16;4943763;28;97731;-76
2022/03/17 06:19:23;;;;;;;1999.90;999.90;;;;;;;1.78;53.29;102212.88;4943179;28;99244;-76
2022/03/17 06:21:52;;;;;;;1999.90;999.90;;;;;;;1.80;53.58;102215.63;4945222;28;97572;-75
2022/03/17 06:24:19;;;;;;;1999.90;999.90;;;;;;;1.80;53.25;102216.53;4943515;28;96705;-76
2022/03/17 06:26:47;;;;;;;1999.90;999.90;;;;;;;1.80;53.45;102213.91;4941709;28;99204;-76
2022/03/17 06:29:15;;;;;;;1999.90;999.90;;;;;;;1.82;53.62;102221.91;4923794;28;100272;-76
2022/03/17 06:31:42;;;;;;;1999.90;999.90;;;;;;;1.81;53.76;102227.97;4941404;28;98100;-75
2022/03/17 06:34:10;;;;;;;1999.90;999.90;;;;;;;1.83;53.63;102226.38;4940379;28;97755;-76
2022/03/17 06:36:38;;;;;;;1999.90;999.90;;;;;;;1.85;53.82;102232.66;4942910;28;98837;-75
2022/03/17 06:39:07;;;;;;;1999.90;999.90;;;;;;;1.87;53.25;102236.34;4941659;28;100515;-76
2022/03/17 06:41:34;;;;;;;1999.90;999.90;;;;;;;1.87;52.98;102229.34;4943981;28;97046;-75
2022/03/17 06:44:02;;;;;;;1999.90;999.90;;;;;;;1.91;53.18;102233.13;4955272;28;97174;-76
2022/03/17 06:46:30;;;;;;;1999.90;999.90;;;;;;;2.37;53.35;102233.34;4941805;28;97627;-75
2022/03/17 06:48:58;;;;;;;1999.90;999.90;;;;;;;2.13;53.83;102240.22;4958803;28;99226;-76
2022/03/17 06:51:26;;;;;;;1999.90;999.90;;;;;;;2.11;53.55;102239.19;4941339;28;99092;-75
2022/03/17 06:53:53;;;;;;;1999.90;999.90;;;;;;;2.09;53.63;102232.91;4944373;28;100263;-76
2022/03/17 06:56:22;;;;;;;1999.90;999.90;;;;;;;2.08;53.41;102217.91;4941971;28;97725;-76
2022/03/17 06:58:50;;;;;;;1999.90;999.90;;;;;;;2.06;53.42;102222.13;4940908;28;99816;-76
2022/03/17 07:01:18;;;;;;;1999.90;999.90;;;;;;;2.05;53.51;102230.78;4942479;28;97018;-75
2022/03/17 07:03:46;;;;;;;1999.90;999.90;;;;;;;2.05;53.76;102235.16;4943352;28;97725;-76
2022/03/17 07:06:14;;;;;;;1999.90;999.90;;;;;;;2.08;53.97;102252.06;4942974;28;99092;-76
2022/03/17 07:08:42;;;;;;;1999.90;999.90;;;;;;;2.08;53.84;102246.81;4944979;28;98508;-77
2022/03/17 07:11:10;;;;;;;1999.90;999.90;;;;;;;2.09;53.22;102251.28;4940923;28;96859;-76
2022/03/17 07:13:39;;;;;;;1999.90;999.90;;;;;;;2.08;53.68;102259.94;4942584;28;99102;-77
2022/03/17 07:16:09;;;;;;;1999.90;999.90;;;;;;;2.09;53.84;102251.28;4940557;28;99564;-76
2022/03/17 07:18:36;;;;;;;1999.90;999.90;;;;;;;2.10;52.97;102255.75;4942009;28;97614;-77
2022/03/17 07:21:04;;;;;;;1999.90;999.90;;;;;;;2.13;52.91;102261.22;4943420;28;97776;-78
2022/03/17 07:23:32;;;;;;;1999.90;999.90;;;;;;;2.16;53.46;102260.56;4941325;28;97635;-77
2022/03/17 07:26:03;;;;;;;1999.90;999.90;;;;;;;2.19;53.91;102250.28;4935522;28;98222;-77
2022/03/17 07:28:30;;;;;;;1999.90;999.90;;;;;;;2.19;53.20;102245.97;4941334;28;98828;-77
2022/03/17 07:30:59;;;;;;;1999.90;999.90;;;;;;;2.20;53.52;102246.84;4941286;28;99330;-76
2022/03/17 07:33:27;;;;;;;1999.90;999.90;;;;;;;2.20;52.90;102258.28;4946282;28;96882;-75
2022/03/17 07:35:55;;;;;;;1999.90;999.90;;;;;;;2.23;52.98;102246.19;4924010;28;101119;-77
2022/03/17 07:38:23;;;;;;;1999.90;999.90;;;;;;;2.23;52.76;102247.13;4927585;28;100275;-76
2022/03/17 07:40:50;;;;;;;1999.90;999.90;;;;;;;2.26;52.96;102251.66;4942651;28;97310;-75
2022/03/17 07:43:18;;;;;;;1999.90;999.90;;;;;;;2.27;52.49;102248.28;4944076;28;97015;-76
2022/03/17 07:46:06;;;;;;;1999.90;999.90;;;;;;;2.30;53.09;102244.16;4942653;28;99996;-74
2022/03/17 07:48:52;;;;;;;1999.90;999.90;;;;;;;2.31;52.47;102240.72;4943491;28;98822;-78
2022/03/17 07:51:30;;;;;;;1999.90;999.90;;;;;;;2.33;53.18;102233.88;4927303;28;98295;-77
2022/03/17 07:53:58;;;;;;;1999.90;999.90;;;;;;;2.36;53.03;102233.22;4947993;28;97096;-77
2022/03/17 07:56:25;;;;;;;1999.90;999.90;;;;;;;2.39;53.41;102241.31;4946083;28;100714;-78
2022/03/17 07:58:53;;;;;;;1999.90;999.90;;;;;;;2.41;52.68;102247.63;4945537;28;100842;-77
2022/03/17 08:01:24;;;;;;;1999.90;999.90;;;;;;;2.43;53.10;102241.69;4945076;28;97942;-77
2022/03/17 08:03:53;;;;;;;1999.90;999.90;;;;;;;2.44;52.90;102248.75;4946683;28;97681;-77
2022/03/17 08:06:22;;;;;;;1999.90;999.90;;;;;;;2.46;52.95;102239.28;4938497;28;97743;-76
2022/03/17 08:08:50;;;;;;;1999.90;999.90;;;;;;;2.49;52.89;102236.00;4936453;28;99366;-77
2022/03/17 08:11:22;;;;;;;1999.90;999.90;;;;;;;2.52;52.62;102230.97;4956583;28;98170;-76
2022/03/17 08:13:49;;;;;;;1999.90;999.90;;;;;;;2.53;52.25;102245.94;4940677;28;98694;-76
2022/03/17 08:16:17;;;;;;;1999.90;999.90;;;;;;;2.58;52.65;102239.31;4938467;28;98407;-75
2022/03/17 08:18:48;;;;;;;1999.90;999.90;;;;;;;2.57;52.20;102238.41;4940987;28;99342;-76
2022/03/17 08:21:16;;;;;;;1999.90;999.90;;;;;;;2.60;52.11;102238.63;4958444;28;98785;-76
2022/03/17 08:23:45;;;;;;;1999.90;999.90;;;;;;;2.64;52.00;102237.13;4942472;28;97254;-76
2022/03/17 08:26:14;;;;;;;1999.90;999.90;;;;;;;2.67;52.82;102237.41;4956529;28;99353;-76
2022/03/17 08:28:42;;;;;;;1999.90;999.90;;;;;;;2.70;52.08;102237.63;4952915;28;99325;-77
2022/03/17 08:31:11;;;;;;;1999.90;999.90;;;;;;;2.73;52.35;102233.50;4940337;28;98046;-77
2022/03/17 08:33:40;;;;;;;1999.90;999.90;;;;;;;2.77;52.40;102238.19;4942301;28;97481;-77
2022/03/17 08:36:09;;;;;;;1999.90;999.90;;;;;;;2.82;51.90;102233.31;4941105;28;99081;-76
2022/03/17 08:38:36;;;;;;;1999.90;999.90;;;;;;;2.84;51.95;102236.94;4943641;28;98889;-76
2022/03/17 08:41:04;;;;;;;1999.90;999.90;;;;;;;2.88;52.21;102234.66;4945658;28;98091;-77
2022/03/17 08:43:32;;;;;;;1999.90;999.90;;;;;;;2.95;52.03;102239.56;4945151;28;96819;-76
2022/03/17 08:51:31;;;;;;;1999.90;999.90;;;;;;;3.11;51.87;102237.28;4943273;28;98111;-75
2022/03/17 08:53:59;;;;;;;1999.90;999.90;;;;;;;3.17;51.94;102237.75;4927621;28;96924;-76
2022/03/17 08:56:28;;;;;;;1999.90;999.90;;;;;;;3.22;51.84;102238.09;4942881;28;100400;-76
2022/03/17 08:58:56;;;;;;;1999.90;999.90;;;;;;;3.28;51.27;102243.78;4935727;28;97649;-75
2022/03/17 09:01:23;;;;;;;1999.90;999.90;;;;;;;3.34;51.51;102254.78;4941771;28;98703;-76
2022/03/17 09:03:52;;;;;;;1999.90;999.90;;;;;;;3.37;51.11;102248.84;4938130;28;97555;-74
2022/03/17 09:06:20;;;;;;;1999.90;999.90;;;;;;;3.42;51.28;102251.00;4942493;28;99346;-74
2022/03/17 09:08:49;;;;;;;1999.90;999.90;;;;;;;3.46;51.04;102242.50;4938766;28;98825;-76
2022/03/17 09:11:17;;;;;;;1999.90;999.90;;;;;;;3.51;51.38;102243.78;4950905;28;98492;-76
2022/03/17 09:13:46;;;;;;;1999.90;999.90;;;;;;;3.56;51.16;102247.63;4940328;28;98330;-75
2022/03/17 09:16:15;;;;;;;1999.90;999.90;;;;;;;3.63;50.94;102246.34;4939045;28;99526;-74
2022/03/17 09:18:42;;;;;;;1999.90;999.90;;;;;;;3.66;50.87;102250.16;4941109;28;99718;-77
2022/03/17 09:21:12;;;;;;;1999.90;999.90;;;;;;;3.71;51.08;102254.06;4943710;28;97387;-75
2022/03/17 09:23:39;;;;;;;1999.90;999.90;;;;;;;3.75;50.98;102256.06;4942414;28;98284;-75
2022/03/17 09:26:08;;;;;;;1999.90;999.90;;;;;;;3.81;50.91;102258.25;4944110;28;98676;-75
2022/03/17 09:28:36;;;;;;;1999.90;999.90;;;;;;;3.86;50.42;102263.03;4939743;28;99057;-75
2022/03/17 09:31:04;;;;;;;1999.90;999.90;;;;;;;3.92;50.58;102252.94;4942254;28;96851;-75
2022/03/17 09:33:32;;;;;;;1999.90;999.90;;;;;;;3.96;50.78;102268.16;4942782;28;97148;-75
2022/03/17 09:36:00;;;;;;;1999.90;999.90;;;;;;;4.02;50.65;102268.56;4943690;28;100908;-75
2022/03/17 09:38:28;;;;;;;1999.90;999.90;;;;;;;4.10;50.28;102270.03;4942101;28;97562;-76
2022/03/17 09:40:58;;;;;;;1999.90;999.90;;;;;;;4.16;50.38;102274.84;4938175;28;98343;-76
2022/03/17 09:43:31;;;;;;;1999.90;999.90;;;;;;;4.20;50.36;102269.91;4941909;28;96943;-70
2022/03/17 09:45:59;;;;;;;1999.90;999.90;;;;;;;4.26;50.29;102274.69;4937384;28;101250;-74
2022/03/17 09:48:28;;;;;;;1999.90;999.90;;;;;;;4.31;50.23;102264.47;4941706;28;99313;-74
2022/03/17 09:50:57;;;;;;;1999.90;999.90;;;;;;;4.38;50.22;102258.81;4925758;28;98533;-74
2022/03/17 09:53:29;;;;;;;1999.90;999.90;;;;;;;4.43;50.08;102254.75;4940847;28;97235;-75
2022/03/17 09:55:57;;;;;;;1999.90;999.90;;;;;;;4.47;49.95;102251.53;4939361;28;99970;-73
2022/03/17 09:58:26;;;;;;;1999.90;999.90;;;;;;;4.52;49.87;102243.13;4941013;28;99237;-75
2022/03/17 10:00:54;;;;;;;1999.90;999.90;;;;;;;4.54;49.93;102230.97;4941792;28;97559;-76
2022/03/17 10:03:26;;;;;;;1999.90;999.90;;;;;;;4.57;49.90;102235.56;4961428;28;97429;-75
2022/03/17 10:05:55;;;;;;;1999.90;999.90;;;;;;;4.62;49.69;102247.31;4929400;28;101486;-75
2022/03/17 10:08:23;;;;;;;1999.90;999.90;;;;;;;4.65;49.87;102242.25;4944369;28;98708;-75
2022/03/17 10:10:52;;;;;;;1999.90;999.90;;;;;;;4.68;49.80;102245.09;4959367;28;96940;-75
2022/03/17 10:13:21;;;;;;;1999.90;999.90;;;;;;;4.73;49.59;102260.44;4945531;28;98193;-75
2022/03/17 10:16:08;;;;;;;1999.90;999.90;;;;;;;4.76;49.96;102264.97;4944208;28;99308;-75
2022/03/17 10:18:38;;;;;;;1999.90;999.90;;;;;;;4.82;50.03;102281.22;4945673;28;96698;-77
2022/03/17 10:21:10;;;;;;;1999.90;999.90;;;;;;;4.87;49.51;102280.72;4942594;28;96808;-74
2022/03/17 10:23:49;;;;;;;1999.90;999.90;;;;;;;4.93;49.71;102282.88;4923800;28;97403;-72
2022/03/17 10:26:34;;;;;;;1999.90;999.90;;;;;;;5.00;49.92;102277.19;4941962;28;99423;-74
2022/03/17 10:29:11;;;;;;;1999.90;999.90;;;;;;;5.06;49.22;102272.38;4944505;28;97886;-73
2022/03/17 10:31:55;;;;;;;1999.90;999.90;;;;;;;5.12;49.61;102283.31;4941688;28;97529;-73
2022/03/17 10:34:26;;;;;;;1999.90;999.90;;;;;;;5.21;49.20;102287.50;4940724;28;98487;-74
2022/03/17 10:37:07;;;;;;;1999.90;999.90;;;;;;;5.28;49.25;102280.91;4925383;28;99947;-76
2022/03/17 10:39:45;;;;;;;1999.90;999.90;;;;;;;5.37;49.07;102285.88;4940338;28;97993;-74
2022/03/17 10:42:15;;;;;;;1999.90;999.90;;;;;;;5.43;48.78;102287.16;4940643;28;97156;-75
2022/03/17 10:44:46;;;;;;;1999.90;999.90;;;;;;;5.48;48.67;102285.78;4940807;28;96925;-74
2022/03/17 10:47:22;;;;;;;1999.90;999.90;;;;;;;5.53;48.81;102278.13;4941575;28;99241;-75
2022/03/17 10:50:02;;;;;;;1999.90;999.90;;;;;;;5.61;48.98;102288.38;4943956;28;98747;-74
2022/03/17 10:52:47;;;;;;;1999.90;999.90;;;;;;;5.67;49.04;102288.78;4940072;28;98027;-74
2022/03/17 10:55:15;;;;;;;1999.90;999.90;;;;;;;5.77;48.42;102283.28;4936491;28;97727;-74
2022/03/17 10:57:43;;;;;;;1999.90;999.90;;;;;;;5.83;48.49;102285.41;4935946;28;97674;-76
2022/03/17 11:00:20;;;;;;;1999.90;999.90;;;;;;;5.90;48.19;102301.72;4940843;28;99080;-78
2022/03/17 11:02:53;;;;;;;1999.90;999.90;;;;;;;5.96;47.97;102294.19;4926645;28;100071;-76
2022/03/17 11:05:22;;;;;;;1999.90;999.90;;;;;;;6.02;48.12;102297.25;4942344;28;98147;-75
2022/03/17 11:07:51;;;;;;;1999.90;999.90;;;;;;;6.06;48.14;102296.63;4943224;28;100473;-75
2022/03/17 11:10:22;;;;;;;1999.90;999.90;;;;;;;6.14;47.90;102294.47;4944450;28;99557;-76
2022/03/17 11:12:52;;;;;;;1999.90;999.90;;;;;;;6.20;47.75;102295.75;4946581;28;96897;-76
2022/03/17 11:15:28;;;;;;;1999.90;999.90;;;;;;;6.25;47.64;102299.59;4945613;28;97295;-76
2022/03/17 11:18:02;;;;;;;1999.90;999.90;;;;;;;6.31;47.77;102293.81;4947458;28;97539;-75
2022/03/17 11:20:30;;;;;;;1999.90;999.90;;;;;;;6.32;47.80;102292.09;4946848;28;99529;-76